sensor_id;sensor_type;location;lat;lon;timestamp;temperature;humidity
66257;DHT22;53049;43.446;3.698;2023-05-10T00:01:56;16.70;1.00
66257;DHT22;53049;43.446;3.698;2023-05-10T00:04:22;16.80;1.00
66257;DHT22;53049;43.446;3.698;2023-05-10T00:06:47;16.80;1.00
66257;DHT22;53049;43.446;3.698;2023-05-10T00:09:13;16.80;1.00
66257;DHT22;53049;43.446;3.698;2023-05-10T00:11:39;16.70;1.00
66257;DHT22;53049;43.446;3.698;2023-05-10T00:14:05;16.70;1.00
66257;DHT22;53049;43.446;3.698;2023-05-10T00:16:30;16.60;1.00
66257;DHT22;53049;43.446;3.698;2023-05-10T00:18:56;16.60;1.00
66257;DHT22;53049;43.446;3.698;2023-05-10T00:21:21;16.60;1.00
66257;DHT22;53049;43.446;3.698;2023-05-10T00:23:48;16.60;1.00
66257;DHT22;53049;43.446;3.698;2023-05-10T00:26:13;16.60;1.00
66257;DHT22;53049;43.446;3.698;2023-05-10T00:28:39;16.50;1.00
66257;DHT22;53049;43.446;3.698;2023-05-10T00:31:04;16.60;1.00
66257;DHT22;53049;43.446;3.698;2023-05-10T00:33:30;16.60;1.00
66257;DHT22;53049;43.446;3.698;2023-05-10T00:35:56;16.50;1.00
66257;DHT22;53049;43.446;3.698;2023-05-10T00:38:21;16.50;1.00
66257;DHT22;53049;43.446;3.698;2023-05-10T00:40:47;16.50;1.00
66257;DHT22;53049;43.446;3.698;2023-05-10T00:43:13;16.50;1.00
66257;DHT22;53049;43.446;3.698;2023-05-10T00:45:40;16.40;1.00
66257;DHT22;53049;43.446;3.698;2023-05-10T00:48:06;16.40;1.00
66257;DHT22;53049;43.446;3.698;2023-05-10T00:50:32;16.40;1.00
66257;DHT22;53049;43.446;3.698;2023-05-10T00:52:59;16.30;1.00
66257;DHT22;53049;43.446;3.698;2023-05-10T00:55:26;16.40;1.00
66257;DHT22;53049;43.446;3.698;2023-05-10T00:57:53;16.30;1.00
66257;DHT22;53049;43.446;3.698;2023-05-10T01:00:18;16.30;1.00
66257;DHT22;53049;43.446;3.698;2023-05-10T01:02:45;16.20;1.00
66257;DHT22;53049;43.446;3.698;2023-05-10T01:05:11;16.20;1.00
66257;DHT22;53049;43.446;3.698;2023-05-10T01:07:38;16.20;1.00
66257;DHT22;53049;43.446;3.698;2023-05-10T01:10:05;16.20;1.00
66257;DHT22;53049;43.446;3.698;2023-05-10T01:12:31;16.20;1.00
66257;DHT22;53049;43.446;3.698;2023-05-10T01:14:57;16.30;1.00
66257;DHT22;53049;43.446;3.698;2023-05-10T01:17:23;16.30;1.00
66257;DHT22;53049;43.446;3.698;2023-05-10T01:19:50;16.30;1.00
66257;DHT22;53049;43.446;3.698;2023-05-10T01:28:08;16.30;1.00
66257;DHT22;53049;43.446;3.698;2023-05-10T01:31:13;16.30;1.00
66257;DHT22;53049;43.446;3.698;2023-05-10T01:33:54;16.30;1.00
66257;DHT22;53049;43.446;3.698;2023-05-10T01:38:57;16.30;1.00
66257;DHT22;53049;43.446;3.698;2023-05-10T01:41:36;16.10;1.00
66257;DHT22;53049;43.446;3.698;2023-05-10T01:44:24;16.20;1.00
66257;DHT22;53049;43.446;3.698;2023-05-10T01:47:01;16.20;1.00
66257;DHT22;53049;43.446;3.698;2023-05-10T01:49:34;16.10;1.00
66257;DHT22;53049;43.446;3.698;2023-05-10T01:52:14;16.10;1.00
66257;DHT22;53049;43.446;3.698;2023-05-10T01:54:49;16.00;1.00
66257;DHT22;53049;43.446;3.698;2023-05-10T01:57:18;16.00;1.00
66257;DHT22;53049;43.446;3.698;2023-05-10T01:59:50;16.00;1.00
66257;DHT22;53049;43.446;3.698;2023-05-10T02:02:18;16.00;1.00
66257;DHT22;53049;43.446;3.698;2023-05-10T02:04:46;15.90;1.00
66257;DHT22;53049;43.446;3.698;2023-05-10T02:07:13;15.90;1.00
66257;DHT22;53049;43.446;3.698;2023-05-10T02:09:41;15.90;1.00
66257;DHT22;53049;43.446;3.698;2023-05-10T02:12:10;16.00;1.00
66257;DHT22;53049;43.446;3.698;2023-05-10T02:14:38;15.90;1.00
66257;DHT22;53049;43.446;3.698;2023-05-10T02:17:08;15.90;1.00
66257;DHT22;53049;43.446;3.698;2023-05-10T02:19:38;15.80;1.00
66257;DHT22;53049;43.446;3.698;2023-05-10T02:22:05;15.80;1.00
66257;DHT22;53049;43.446;3.698;2023-05-10T02:24:32;15.70;1.00
66257;DHT22;53049;43.446;3.698;2023-05-10T02:26:59;15.70;1.00
66257;DHT22;53049;43.446;3.698;2023-05-10T02:29:27;15.60;1.00
66257;DHT22;53049;43.446;3.698;2023-05-10T02:31:54;15.60;1.00
66257;DHT22;53049;43.446;3.698;2023-05-10T02:34:22;15.60;1.00
66257;DHT22;53049;43.446;3.698;2023-05-10T02:36:50;15.60;1.00
66257;DHT22;53049;43.446;3.698;2023-05-10T02:39:17;15.50;1.00
66257;DHT22;53049;43.446;3.698;2023-05-10T02:41:46;15.50;1.00
66257;DHT22;53049;43.446;3.698;2023-05-10T02:44:14;15.50;1.00
66257;DHT22;53049;43.446;3.698;2023-05-10T02:46:40;15.40;1.00
66257;DHT22;53049;43.446;3.698;2023-05-10T02:49:07;15.40;1.00
66257;DHT22;53049;43.446;3.698;2023-05-10T02:51:35;15.40;1.00
66257;DHT22;53049;43.446;3.698;2023-05-10T02:54:07;15.40;1.00
66257;DHT22;53049;43.446;3.698;2023-05-10T02:56:36;15.30;1.00
66257;DHT22;53049;43.446;3.698;2023-05-10T02:59:04;15.30;1.00
66257;DHT22;53049;43.446;3.698;2023-05-10T03:01:30;15.30;1.00
66257;DHT22;53049;43.446;3.698;2023-05-10T03:03:56;15.20;1.00
66257;DHT22;53049;43.446;3.698;2023-05-10T03:06:21;15.20;1.00
66257;DHT22;53049;43.446;3.698;2023-05-10T03:08:47;15.20;1.00
66257;DHT22;53049;43.446;3.698;2023-05-10T03:14:21;15.20;1.00
66257;DHT22;53049;43.446;3.698;2023-05-10T03:16:57;15.10;1.00
66257;DHT22;53049;43.446;3.698;2023-05-10T03:19:30;15.10;1.00
66257;DHT22;53049;43.446;3.698;2023-05-10T03:22:00;15.10;1.00
66257;DHT22;53049;43.446;3.698;2023-05-10T03:24:28;15.10;1.00
66257;DHT22;53049;43.446;3.698;2023-05-10T03:26:56;15.00;1.00
66257;DHT22;53049;43.446;3.698;2023-05-10T03:29:26;15.10;1.00
66257;DHT22;53049;43.446;3.698;2023-05-10T03:31:52;15.00;1.00
66257;DHT22;53049;43.446;3.698;2023-05-10T03:34:23;14.90;1.00
66257;DHT22;53049;43.446;3.698;2023-05-10T03:36:49;14.90;1.00
66257;DHT22;53049;43.446;3.698;2023-05-10T03:39:15;15.00;1.00
66257;DHT22;53049;43.446;3.698;2023-05-10T03:41:40;14.90;1.00
66257;DHT22;53049;43.446;3.698;2023-05-10T03:44:06;14.80;1.00
66257;DHT22;53049;43.446;3.698;2023-05-10T03:46:32;14.90;1.00
66257;DHT22;53049;43.446;3.698;2023-05-10T03:48:57;14.80;1.00
66257;DHT22;53049;43.446;3.698;2023-05-10T03:51:23;14.80;1.00
66257;DHT22;53049;43.446;3.698;2023-05-10T03:53:53;14.80;1.00
66257;DHT22;53049;43.446;3.698;2023-05-10T03:56:19;14.70;1.00
66257;DHT22;53049;43.446;3.698;2023-05-10T03:58:46;14.70;1.00
66257;DHT22;53049;43.446;3.698;2023-05-10T04:01:12;14.70;1.00
66257;DHT22;53049;43.446;3.698;2023-05-10T04:03:38;14.70;1.00
66257;DHT22;53049;43.446;3.698;2023-05-10T04:06:04;14.70;1.00
66257;DHT22;53049;43.446;3.698;2023-05-10T04:08:31;14.70;1.00
66257;DHT22;53049;43.446;3.698;2023-05-10T04:11:23;14.60;1.00
66257;DHT22;53049;43.446;3.698;2023-05-10T04:13:49;14.60;1.00
66257;DHT22;53049;43.446;3.698;2023-05-10T04:16:15;14.60;1.00
66257;DHT22;53049;43.446;3.698;2023-05-10T04:18:41;14.60;1.00
66257;DHT22;53049;43.446;3.698;2023-05-10T04:21:13;14.60;1.00
66257;DHT22;53049;43.446;3.698;2023-05-10T04:23:39;14.60;1.00
66257;DHT22;53049;43.446;3.698;2023-05-10T04:26:05;14.60;1.00
66257;DHT22;53049;43.446;3.698;2023-05-10T04:28:31;14.60;1.00
66257;DHT22;53049;43.446;3.698;2023-05-10T04:31:05;14.50;1.00
66257;DHT22;53049;43.446;3.698;2023-05-10T04:33:31;14.50;1.00
66257;DHT22;53049;43.446;3.698;2023-05-10T04:35:57;14.50;1.00
66257;DHT22;53049;43.446;3.698;2023-05-10T04:38:22;14.50;1.00
66257;DHT22;53049;43.446;3.698;2023-05-10T04:40:48;14.60;1.00
66257;DHT22;53049;43.446;3.698;2023-05-10T04:43:14;14.60;1.00
66257;DHT22;53049;43.446;3.698;2023-05-10T04:45:39;14.60;1.00
66257;DHT22;53049;43.446;3.698;2023-05-10T04:48:05;14.60;1.00
66257;DHT22;53049;43.446;3.698;2023-05-10T04:50:31;14.60;1.00
66257;DHT22;53049;43.446;3.698;2023-05-10T04:52:57;14.70;1.00
66257;DHT22;53049;43.446;3.698;2023-05-10T04:55:22;14.70;1.00
66257;DHT22;53049;43.446;3.698;2023-05-10T04:57:48;14.70;1.00
66257;DHT22;53049;43.446;3.698;2023-05-10T05:00:14;14.70;1.00
66257;DHT22;53049;43.446;3.698;2023-05-10T05:02:44;14.70;1.00
66257;DHT22;53049;43.446;3.698;2023-05-10T05:05:11;14.70;1.00
66257;DHT22;53049;43.446;3.698;2023-05-10T05:07:37;14.80;1.00
66257;DHT22;53049;43.446;3.698;2023-05-10T05:10:07;14.80;1.00
66257;DHT22;53049;43.446;3.698;2023-05-10T05:12:34;14.90;1.00
66257;DHT22;53049;43.446;3.698;2023-05-10T05:15:00;14.90;1.00
66257;DHT22;53049;43.446;3.698;2023-05-10T05:17:26;15.00;1.00
66257;DHT22;53049;43.446;3.698;2023-05-10T05:19:51;15.00;1.00
66257;DHT22;53049;43.446;3.698;2023-05-10T05:22:17;15.00;1.00
66257;DHT22;53049;43.446;3.698;2023-05-10T05:24:44;14.90;1.00
66257;DHT22;53049;43.446;3.698;2023-05-10T05:27:10;14.80;1.00
66257;DHT22;53049;43.446;3.698;2023-05-10T05:29:36;14.80;1.00
66257;DHT22;53049;43.446;3.698;2023-05-10T05:32:02;14.70;1.00
66257;DHT22;53049;43.446;3.698;2023-05-10T05:34:27;14.70;1.00
66257;DHT22;53049;43.446;3.698;2023-05-10T05:36:53;14.60;1.00
66257;DHT22;53049;43.446;3.698;2023-05-10T05:39:19;14.60;1.00
66257;DHT22;53049;43.446;3.698;2023-05-10T05:41:45;14.60;1.00
66257;DHT22;53049;43.446;3.698;2023-05-10T05:44:11;14.60;1.00
66257;DHT22;53049;43.446;3.698;2023-05-10T05:46:37;14.70;1.00
66257;DHT22;53049;43.446;3.698;2023-05-10T05:49:02;14.70;1.00
66257;DHT22;53049;43.446;3.698;2023-05-10T05:51:28;14.70;1.00
66257;DHT22;53049;43.446;3.698;2023-05-10T05:53:54;14.70;1.00
66257;DHT22;53049;43.446;3.698;2023-05-10T05:56:19;14.70;1.00
66257;DHT22;53049;43.446;3.698;2023-05-10T05:58:50;14.70;1.00
66257;DHT22;53049;43.446;3.698;2023-05-10T06:01:16;14.70;1.00
66257;DHT22;53049;43.446;3.698;2023-05-10T06:03:41;14.70;1.00
66257;DHT22;53049;43.446;3.698;2023-05-10T06:06:07;14.80;1.00
66257;DHT22;53049;43.446;3.698;2023-05-10T06:08:33;14.80;1.00
66257;DHT22;53049;43.446;3.698;2023-05-10T06:10:59;14.80;1.00
66257;DHT22;53049;43.446;3.698;2023-05-10T06:13:25;14.80;1.00
66257;DHT22;53049;43.446;3.698;2023-05-10T06:15:57;14.80;1.00
66257;DHT22;53049;43.446;3.698;2023-05-10T06:18:23;14.80;1.00
66257;DHT22;53049;43.446;3.698;2023-05-10T06:20:49;14.80;1.00
66257;DHT22;53049;43.446;3.698;2023-05-10T06:23:15;14.80;1.00
66257;DHT22;53049;43.446;3.698;2023-05-10T06:25:41;14.80;1.00
66257;DHT22;53049;43.446;3.698;2023-05-10T06:28:06;14.80;1.00
66257;DHT22;53049;43.446;3.698;2023-05-10T06:30:32;14.80;1.00
66257;DHT22;53049;43.446;3.698;2023-05-10T06:32:58;14.80;1.00
66257;DHT22;53049;43.446;3.698;2023-05-10T06:35:24;14.90;1.00
66257;DHT22;53049;43.446;3.698;2023-05-10T06:37:50;14.90;1.00
66257;DHT22;53049;43.446;3.698;2023-05-10T06:40:16;14.90;1.00
66257;DHT22;53049;43.446;3.698;2023-05-10T06:42:42;14.80;1.00
66257;DHT22;53049;43.446;3.698;2023-05-10T06:45:08;14.80;1.00
66257;DHT22;53049;43.446;3.698;2023-05-10T06:47:34;14.80;1.00
66257;DHT22;53049;43.446;3.698;2023-05-10T06:50:00;14.80;1.00
66257;DHT22;53049;43.446;3.698;2023-05-10T06:52:25;14.80;1.00
66257;DHT22;53049;43.446;3.698;2023-05-10T06:54:51;14.80;1.00
66257;DHT22;53049;43.446;3.698;2023-05-10T06:57:17;14.90;1.00
66257;DHT22;53049;43.446;3.698;2023-05-10T06:59:43;14.90;1.00
66257;DHT22;53049;43.446;3.698;2023-05-10T07:02:09;14.90;1.00
66257;DHT22;53049;43.446;3.698;2023-05-10T07:04:34;14.90;1.00
66257;DHT22;53049;43.446;3.698;2023-05-10T07:07:00;14.90;1.00
66257;DHT22;53049;43.446;3.698;2023-05-10T07:09:26;14.90;1.00
66257;DHT22;53049;43.446;3.698;2023-05-10T07:11:51;14.90;1.00
66257;DHT22;53049;43.446;3.698;2023-05-10T07:14:17;15.00;1.00
66257;DHT22;53049;43.446;3.698;2023-05-10T07:16:43;15.00;1.00
66257;DHT22;53049;43.446;3.698;2023-05-10T07:19:09;15.10;1.00
66257;DHT22;53049;43.446;3.698;2023-05-10T07:21:35;15.10;1.00
66257;DHT22;53049;43.446;3.698;2023-05-10T07:24:01;15.20;1.00
66257;DHT22;53049;43.446;3.698;2023-05-10T07:26:27;15.30;1.00
66257;DHT22;53049;43.446;3.698;2023-05-10T07:28:53;16.30;1.00
66257;DHT22;53049;43.446;3.698;2023-05-10T07:31:18;16.60;1.00
66257;DHT22;53049;43.446;3.698;2023-05-10T07:33:44;17.70;1.00
66257;DHT22;53049;43.446;3.698;2023-05-10T07:36:09;18.20;1.00
66257;DHT22;53049;43.446;3.698;2023-05-10T07:38:35;21.10;1.00
66257;DHT22;53049;43.446;3.698;2023-05-10T07:41:01;23.40;1.00
66257;DHT22;53049;43.446;3.698;2023-05-10T07:43:26;25.40;1.00
66257;DHT22;53049;43.446;3.698;2023-05-10T07:45:52;27.30;1.00
66257;DHT22;53049;43.446;3.698;2023-05-10T07:48:18;27.40;1.00
66257;DHT22;53049;43.446;3.698;2023-05-10T07:50:43;26.90;1.00
66257;DHT22;53049;43.446;3.698;2023-05-10T07:53:09;27.30;1.00
66257;DHT22;53049;43.446;3.698;2023-05-10T07:55:35;24.90;1.00
66257;DHT22;53049;43.446;3.698;2023-05-10T07:58:00;27.90;1.00
66257;DHT22;53049;43.446;3.698;2023-05-10T08:00:26;28.60;1.00
66257;DHT22;53049;43.446;3.698;2023-05-10T08:02:52;30.20;1.00
66257;DHT22;53049;43.446;3.698;2023-05-10T08:05:18;30.80;1.00
66257;DHT22;53049;43.446;3.698;2023-05-10T08:07:44;32.60;1.00
66257;DHT22;53049;43.446;3.698;2023-05-10T08:10:10;32.90;1.00
66257;DHT22;53049;43.446;3.698;2023-05-10T08:12:38;30.90;1.00
66257;DHT22;53049;43.446;3.698;2023-05-10T08:15:05;26.00;1.00
66257;DHT22;53049;43.446;3.698;2023-05-10T08:17:30;28.30;1.00
66257;DHT22;53049;43.446;3.698;2023-05-10T08:19:56;29.90;1.00
66257;DHT22;53049;43.446;3.698;2023-05-10T08:22:22;30.80;1.00
66257;DHT22;53049;43.446;3.698;2023-05-10T08:24:47;32.40;1.00
66257;DHT22;53049;43.446;3.698;2023-05-10T08:27:13;30.40;1.00
66257;DHT22;53049;43.446;3.698;2023-05-10T08:29:39;25.20;1.00
66257;DHT22;53049;43.446;3.698;2023-05-10T08:32:04;23.10;1.00
66257;DHT22;53049;43.446;3.698;2023-05-10T08:34:30;22.70;1.00
66257;DHT22;53049;43.446;3.698;2023-05-10T08:36:56;22.20;1.00
66257;DHT22;53049;43.446;3.698;2023-05-10T08:39:22;20.90;1.00
66257;DHT22;53049;43.446;3.698;2023-05-10T08:41:50;20.70;1.00
66257;DHT22;53049;43.446;3.698;2023-05-10T08:44:16;20.70;1.00
66257;DHT22;53049;43.446;3.698;2023-05-10T08:46:46;20.90;1.00
66257;DHT22;53049;43.446;3.698;2023-05-10T08:49:16;21.00;1.00
66257;DHT22;53049;43.446;3.698;2023-05-10T08:51:49;21.30;1.00
66257;DHT22;53049;43.446;3.698;2023-05-10T08:54:16;21.40;1.00
66257;DHT22;53049;43.446;3.698;2023-05-10T08:56:42;21.90;1.00
66257;DHT22;53049;43.446;3.698;2023-05-10T08:59:07;21.80;1.00
66257;DHT22;53049;43.446;3.698;2023-05-10T09:01:35;21.60;1.00
66257;DHT22;53049;43.446;3.698;2023-05-10T09:04:02;21.20;1.00
66257;DHT22;53049;43.446;3.698;2023-05-10T09:06:28;21.20;1.00
66257;DHT22;53049;43.446;3.698;2023-05-10T09:08:54;20.30;1.00
66257;DHT22;53049;43.446;3.698;2023-05-10T09:11:20;21.10;1.00
66257;DHT22;53049;43.446;3.698;2023-05-10T09:13:48;21.40;1.00
66257;DHT22;53049;43.446;3.698;2023-05-10T09:16:13;21.30;1.00
66257;DHT22;53049;43.446;3.698;2023-05-10T09:18:39;21.10;1.00
66257;DHT22;53049;43.446;3.698;2023-05-10T09:21:05;20.80;1.00
66257;DHT22;53049;43.446;3.698;2023-05-10T09:23:30;20.70;1.00
66257;DHT22;53049;43.446;3.698;2023-05-10T09:26:07;21.10;1.00
66257;DHT22;53049;43.446;3.698;2023-05-10T09:28:34;21.90;1.00
66257;DHT22;53049;43.446;3.698;2023-05-10T09:31:00;21.60;1.00
66257;DHT22;53049;43.446;3.698;2023-05-10T09:33:25;21.90;1.00
66257;DHT22;53049;43.446;3.698;2023-05-10T09:35:52;22.60;1.00
66257;DHT22;53049;43.446;3.698;2023-05-10T09:38:17;22.60;1.00
66257;DHT22;53049;43.446;3.698;2023-05-10T09:40:53;21.40;1.00
66257;DHT22;53049;43.446;3.698;2023-05-10T09:43:20;21.80;1.00
66257;DHT22;53049;43.446;3.698;2023-05-10T09:45:48;21.80;1.00
66257;DHT22;53049;43.446;3.698;2023-05-10T09:48:17;22.00;1.00
66257;DHT22;53049;43.446;3.698;2023-05-10T09:50:42;22.10;1.00
66257;DHT22;53049;43.446;3.698;2023-05-10T09:53:08;22.00;1.00
66257;DHT22;53049;43.446;3.698;2023-05-10T09:55:45;22.00;1.00
66257;DHT22;53049;43.446;3.698;2023-05-10T09:58:14;22.20;1.00
66257;DHT22;53049;43.446;3.698;2023-05-10T10:00:44;22.50;1.00
66257;DHT22;53049;43.446;3.698;2023-05-10T10:03:16;21.90;1.00
66257;DHT22;53049;43.446;3.698;2023-05-10T10:05:42;20.90;1.00
66257;DHT22;53049;43.446;3.698;2023-05-10T10:08:09;20.60;1.00
66257;DHT22;53049;43.446;3.698;2023-05-10T10:10:35;20.60;1.00
66257;DHT22;53049;43.446;3.698;2023-05-10T10:13:01;20.50;1.00
66257;DHT22;53049;43.446;3.698;2023-05-10T10:15:27;20.30;1.00
66257;DHT22;53049;43.446;3.698;2023-05-10T10:17:53;20.40;1.00
66257;DHT22;53049;43.446;3.698;2023-05-10T10:20:20;20.50;1.00
66257;DHT22;53049;43.446;3.698;2023-05-10T10:22:47;20.30;1.00
66257;DHT22;53049;43.446;3.698;2023-05-10T10:25:15;20.30;1.00
66257;DHT22;53049;43.446;3.698;2023-05-10T10:30:37;20.30;1.00
66257;DHT22;53049;43.446;3.698;2023-05-10T10:36:08;20.40;1.00
66257;DHT22;53049;43.446;3.698;2023-05-10T10:38:54;20.60;1.00
66257;DHT22;53049;43.446;3.698;2023-05-10T10:41:35;20.60;1.00
66257;DHT22;53049;43.446;3.698;2023-05-10T10:49:50;20.40;1.00
66257;DHT22;53049;43.446;3.698;2023-05-10T10:55:08;20.10;1.00
66257;DHT22;53049;43.446;3.698;2023-05-10T11:02:57;20.20;1.00
66257;DHT22;53049;43.446;3.698;2023-05-10T11:05:34;20.30;1.00
66257;DHT22;53049;43.446;3.698;2023-05-10T11:08:08;19.80;1.00
66257;DHT22;53049;43.446;3.698;2023-05-10T11:10:34;19.80;1.00
66257;DHT22;53049;43.446;3.698;2023-05-10T11:13:05;19.80;1.00
66257;DHT22;53049;43.446;3.698;2023-05-10T11:15:37;20.20;1.00
66257;DHT22;53049;43.446;3.698;2023-05-10T11:18:24;20.00;1.00
66257;DHT22;53049;43.446;3.698;2023-05-10T11:20:51;20.20;1.00
66257;DHT22;53049;43.446;3.698;2023-05-10T11:23:18;20.10;1.00
66257;DHT22;53049;43.446;3.698;2023-05-10T11:25:45;20.40;1.00
66257;DHT22;53049;43.446;3.698;2023-05-10T11:28:12;20.30;1.00
66257;DHT22;53049;43.446;3.698;2023-05-10T11:30:39;20.40;1.00
66257;DHT22;53049;43.446;3.698;2023-05-10T11:33:06;20.20;1.00
66257;DHT22;53049;43.446;3.698;2023-05-10T11:35:40;20.00;1.00
66257;DHT22;53049;43.446;3.698;2023-05-10T11:38:15;20.00;1.00
66257;DHT22;53049;43.446;3.698;2023-05-10T11:40:41;19.90;1.00
66257;DHT22;53049;43.446;3.698;2023-05-10T11:43:09;20.20;1.00
66257;DHT22;53049;43.446;3.698;2023-05-10T11:45:35;20.40;1.00
66257;DHT22;53049;43.446;3.698;2023-05-10T11:48:01;20.50;1.00
66257;DHT22;53049;43.446;3.698;2023-05-10T11:50:28;20.70;1.00
66257;DHT22;53049;43.446;3.698;2023-05-10T11:52:55;20.70;1.00
66257;DHT22;53049;43.446;3.698;2023-05-10T11:55:21;20.80;1.00
66257;DHT22;53049;43.446;3.698;2023-05-10T11:57:47;20.90;1.00
66257;DHT22;53049;43.446;3.698;2023-05-10T12:00:13;21.00;1.00
66257;DHT22;53049;43.446;3.698;2023-05-10T12:02:39;20.70;1.00
66257;DHT22;53049;43.446;3.698;2023-05-10T12:05:06;21.00;1.00
66257;DHT22;53049;43.446;3.698;2023-05-10T12:07:32;21.00;1.00
66257;DHT22;53049;43.446;3.698;2023-05-10T12:12:44;20.80;1.00
66257;DHT22;53049;43.446;3.698;2023-05-10T12:15:21;20.90;1.00
66257;DHT22;53049;43.446;3.698;2023-05-10T12:17:48;20.70;1.00
66257;DHT22;53049;43.446;3.698;2023-05-10T12:22:51;20.90;1.00
66257;DHT22;53049;43.446;3.698;2023-05-10T12:25:22;21.10;1.00
66257;DHT22;53049;43.446;3.698;2023-05-10T12:27:55;20.90;1.00
66257;DHT22;53049;43.446;3.698;2023-05-10T12:30:26;20.90;1.00
66257;DHT22;53049;43.446;3.698;2023-05-10T12:32:53;20.90;1.00
66257;DHT22;53049;43.446;3.698;2023-05-10T12:35:19;21.00;1.00
66257;DHT22;53049;43.446;3.698;2023-05-10T12:37:52;21.00;1.00
66257;DHT22;53049;43.446;3.698;2023-05-10T12:40:18;21.10;1.00
66257;DHT22;53049;43.446;3.698;2023-05-10T12:42:44;21.00;1.00
66257;DHT22;53049;43.446;3.698;2023-05-10T12:45:11;21.10;1.00
66257;DHT22;53049;43.446;3.698;2023-05-10T12:47:37;21.00;1.00
66257;DHT22;53049;43.446;3.698;2023-05-10T12:50:03;21.10;1.00
66257;DHT22;53049;43.446;3.698;2023-05-10T12:52:29;21.10;1.00
66257;DHT22;53049;43.446;3.698;2023-05-10T12:54:55;21.20;1.00
66257;DHT22;53049;43.446;3.698;2023-05-10T12:57:21;21.00;1.00
66257;DHT22;53049;43.446;3.698;2023-05-10T12:59:47;21.00;1.00
66257;DHT22;53049;43.446;3.698;2023-05-10T13:02:12;21.00;1.00
66257;DHT22;53049;43.446;3.698;2023-05-10T13:04:40;21.00;1.00
66257;DHT22;53049;43.446;3.698;2023-05-10T13:07:09;21.20;1.00
66257;DHT22;53049;43.446;3.698;2023-05-10T13:09:35;21.10;1.00
66257;DHT22;53049;43.446;3.698;2023-05-10T13:12:01;21.20;1.00
66257;DHT22;53049;43.446;3.698;2023-05-10T13:14:27;21.40;1.00
66257;DHT22;53049;43.446;3.698;2023-05-10T13:16:53;21.50;1.00
66257;DHT22;53049;43.446;3.698;2023-05-10T13:19:19;21.70;1.00
66257;DHT22;53049;43.446;3.698;2023-05-10T13:21:45;21.70;1.00
66257;DHT22;53049;43.446;3.698;2023-05-10T13:24:11;21.70;1.00
66257;DHT22;53049;43.446;3.698;2023-05-10T13:26:39;21.60;1.00
66257;DHT22;53049;43.446;3.698;2023-05-10T13:29:05;21.50;1.00
66257;DHT22;53049;43.446;3.698;2023-05-10T13:31:31;21.40;1.00
66257;DHT22;53049;43.446;3.698;2023-05-10T13:33:57;21.10;1.00
66257;DHT22;53049;43.446;3.698;2023-05-10T13:36:22;21.00;1.00
66257;DHT22;53049;43.446;3.698;2023-05-10T13:38:48;20.90;1.00
66257;DHT22;53049;43.446;3.698;2023-05-10T13:41:13;20.90;1.00
66257;DHT22;53049;43.446;3.698;2023-05-10T13:43:39;20.90;1.00
66257;DHT22;53049;43.446;3.698;2023-05-10T13:46:05;21.00;1.00
66257;DHT22;53049;43.446;3.698;2023-05-10T13:48:31;21.20;1.00
66257;DHT22;53049;43.446;3.698;2023-05-10T13:50:56;21.30;1.00
66257;DHT22;53049;43.446;3.698;2023-05-10T13:53:22;21.40;1.00
66257;DHT22;53049;43.446;3.698;2023-05-10T13:55:48;21.20;1.00
66257;DHT22;53049;43.446;3.698;2023-05-10T13:58:14;21.10;1.00
66257;DHT22;53049;43.446;3.698;2023-05-10T14:00:39;21.10;1.00
66257;DHT22;53049;43.446;3.698;2023-05-10T14:03:05;21.00;1.00
66257;DHT22;53049;43.446;3.698;2023-05-10T14:05:32;21.20;1.00
66257;DHT22;53049;43.446;3.698;2023-05-10T14:07:58;21.40;1.00
66257;DHT22;53049;43.446;3.698;2023-05-10T14:10:23;21.30;1.00
66257;DHT22;53049;43.446;3.698;2023-05-10T14:12:49;21.30;1.00
66257;DHT22;53049;43.446;3.698;2023-05-10T14:15:15;21.10;1.00
66257;DHT22;53049;43.446;3.698;2023-05-10T14:17:41;21.20;1.00
66257;DHT22;53049;43.446;3.698;2023-05-10T14:20:07;21.10;1.00
66257;DHT22;53049;43.446;3.698;2023-05-10T14:22:33;21.30;1.00
66257;DHT22;53049;43.446;3.698;2023-05-10T14:24:59;21.20;1.00
66257;DHT22;53049;43.446;3.698;2023-05-10T14:27:25;21.20;1.00
66257;DHT22;53049;43.446;3.698;2023-05-10T14:29:51;21.20;1.00
66257;DHT22;53049;43.446;3.698;2023-05-10T14:32:16;21.20;1.00
66257;DHT22;53049;43.446;3.698;2023-05-10T14:34:42;21.20;1.00
66257;DHT22;53049;43.446;3.698;2023-05-10T14:37:10;21.20;1.00
66257;DHT22;53049;43.446;3.698;2023-05-10T14:39:37;21.30;1.00
66257;DHT22;53049;43.446;3.698;2023-05-10T14:42:03;21.30;1.00
66257;DHT22;53049;43.446;3.698;2023-05-10T14:44:29;21.10;1.00
66257;DHT22;53049;43.446;3.698;2023-05-10T14:46:54;21.00;1.00
66257;DHT22;53049;43.446;3.698;2023-05-10T14:49:21;20.90;1.00
66257;DHT22;53049;43.446;3.698;2023-05-10T14:51:48;21.00;1.00
66257;DHT22;53049;43.446;3.698;2023-05-10T14:54:14;21.00;1.00
66257;DHT22;53049;43.446;3.698;2023-05-10T14:56:39;21.10;1.00
66257;DHT22;53049;43.446;3.698;2023-05-10T14:59:08;21.10;1.00
66257;DHT22;53049;43.446;3.698;2023-05-10T15:01:34;21.10;1.00
66257;DHT22;53049;43.446;3.698;2023-05-10T15:04:05;21.10;1.00
66257;DHT22;53049;43.446;3.698;2023-05-10T15:06:32;21.00;1.00
66257;DHT22;53049;43.446;3.698;2023-05-10T15:08:58;21.10;1.00
66257;DHT22;53049;43.446;3.698;2023-05-10T15:11:23;21.00;1.00
66257;DHT22;53049;43.446;3.698;2023-05-10T15:13:49;21.00;1.00
66257;DHT22;53049;43.446;3.698;2023-05-10T15:16:15;21.00;1.00
66257;DHT22;53049;43.446;3.698;2023-05-10T15:18:40;21.10;1.00
66257;DHT22;53049;43.446;3.698;2023-05-10T15:21:06;21.20;1.00
66257;DHT22;53049;43.446;3.698;2023-05-10T15:23:31;21.10;1.00
66257;DHT22;53049;43.446;3.698;2023-05-10T15:25:57;21.00;1.00
66257;DHT22;53049;43.446;3.698;2023-05-10T15:28:23;21.00;1.00
66257;DHT22;53049;43.446;3.698;2023-05-10T15:30:48;21.00;1.00
66257;DHT22;53049;43.446;3.698;2023-05-10T15:33:14;20.90;1.00
66257;DHT22;53049;43.446;3.698;2023-05-10T15:35:40;20.90;1.00
66257;DHT22;53049;43.446;3.698;2023-05-10T15:38:06;21.00;1.00
66257;DHT22;53049;43.446;3.698;2023-05-10T15:40:32;21.10;1.00
66257;DHT22;53049;43.446;3.698;2023-05-10T15:42:58;21.20;1.00
66257;DHT22;53049;43.446;3.698;2023-05-10T15:45:23;21.20;1.00
66257;DHT22;53049;43.446;3.698;2023-05-10T15:47:49;21.20;1.00
66257;DHT22;53049;43.446;3.698;2023-05-10T15:50:15;21.10;1.00
66257;DHT22;53049;43.446;3.698;2023-05-10T15:52:41;21.00;1.00
66257;DHT22;53049;43.446;3.698;2023-05-10T15:55:08;21.00;1.00
66257;DHT22;53049;43.446;3.698;2023-05-10T15:57:40;21.00;1.00
66257;DHT22;53049;43.446;3.698;2023-05-10T16:00:11;21.00;1.00
66257;DHT22;53049;43.446;3.698;2023-05-10T16:02:38;20.90;1.00
66257;DHT22;53049;43.446;3.698;2023-05-10T16:05:04;21.00;1.00
66257;DHT22;53049;43.446;3.698;2023-05-10T16:07:30;20.90;1.00
66257;DHT22;53049;43.446;3.698;2023-05-10T16:09:55;20.90;1.00
66257;DHT22;53049;43.446;3.698;2023-05-10T16:12:21;20.90;1.00
66257;DHT22;53049;43.446;3.698;2023-05-10T16:14:47;20.90;1.00
66257;DHT22;53049;43.446;3.698;2023-05-10T16:17:13;21.00;1.00
66257;DHT22;53049;43.446;3.698;2023-05-10T16:19:39;21.00;1.00
66257;DHT22;53049;43.446;3.698;2023-05-10T16:22:05;20.80;1.00